sensor_id;sensor_type;location;lat;lon;timestamp;temperature;humidity
37560;DHT22;23398;50.928;7.084;2022-12-18T00:01:31;-2.50;76.30
37560;DHT22;23398;50.928;7.084;2022-12-18T00:03:57;-2.50;76.20
37560;DHT22;23398;50.928;7.084;2022-12-18T00:06:24;-2.50;76.10
37560;DHT22;23398;50.928;7.084;2022-12-18T00:08:50;-2.50;76.10
37560;DHT22;23398;50.928;7.084;2022-12-18T00:11:20;-2.50;76.20
37560;DHT22;23398;50.928;7.084;2022-12-18T00:13:47;-2.40;76.50
37560;DHT22;23398;50.928;7.084;2022-12-18T00:16:14;-2.40;76.40
37560;DHT22;23398;50.928;7.084;2022-12-18T00:18:41;-2.40;76.40
37560;DHT22;23398;50.928;7.084;2022-12-18T00:21:09;-2.40;76.40
37560;DHT22;23398;50.928;7.084;2022-12-18T00:23:37;-2.30;76.80
37560;DHT22;23398;50.928;7.084;2022-12-18T00:26:10;-2.30;76.30
37560;DHT22;23398;50.928;7.084;2022-12-18T00:28:36;-2.30;76.10
37560;DHT22;23398;50.928;7.084;2022-12-18T00:31:03;-2.30;75.80
37560;DHT22;23398;50.928;7.084;2022-12-18T00:33:29;-2.30;75.60
37560;DHT22;23398;50.928;7.084;2022-12-18T00:35:54;-2.30;75.40
37560;DHT22;23398;50.928;7.084;2022-12-18T00:38:20;-2.20;75.30
37560;DHT22;23398;50.928;7.084;2022-12-18T00:40:45;-2.30;75.10
37560;DHT22;23398;50.928;7.084;2022-12-18T00:43:11;-2.30;75.00
37560;DHT22;23398;50.928;7.084;2022-12-18T00:45:36;-2.30;75.00
37560;DHT22;23398;50.928;7.084;2022-12-18T00:48:02;-2.30;74.90
37560;DHT22;23398;50.928;7.084;2022-12-18T00:50:28;-2.30;75.00
37560;DHT22;23398;50.928;7.084;2022-12-18T00:52:53;-2.30;74.90
37560;DHT22;23398;50.928;7.084;2022-12-18T00:55:19;-2.20;74.90
37560;DHT22;23398;50.928;7.084;2022-12-18T00:57:44;-2.20;74.70
37560;DHT22;23398;50.928;7.084;2022-12-18T01:00:13;-2.30;74.40
37560;DHT22;23398;50.928;7.084;2022-12-18T01:02:40;-2.30;74.20
37560;DHT22;23398;50.928;7.084;2022-12-18T01:05:07;-2.30;74.10
37560;DHT22;23398;50.928;7.084;2022-12-18T01:07:33;-2.30;74.10
37560;DHT22;23398;50.928;7.084;2022-12-18T01:09:58;-2.40;74.00
37560;DHT22;23398;50.928;7.084;2022-12-18T01:12:24;-2.30;74.20
37560;DHT22;23398;50.928;7.084;2022-12-18T01:14:50;-2.40;74.10
37560;DHT22;23398;50.928;7.084;2022-12-18T01:17:15;-2.40;74.20
37560;DHT22;23398;50.928;7.084;2022-12-18T01:19:41;-2.40;74.20
37560;DHT22;23398;50.928;7.084;2022-12-18T01:22:07;-2.40;74.20
37560;DHT22;23398;50.928;7.084;2022-12-18T01:24:32;-2.40;74.10
37560;DHT22;23398;50.928;7.084;2022-12-18T01:26:58;-2.40;73.80
37560;DHT22;23398;50.928;7.084;2022-12-18T01:29:24;-2.40;73.60
37560;DHT22;23398;50.928;7.084;2022-12-18T01:31:49;-2.40;73.60
37560;DHT22;23398;50.928;7.084;2022-12-18T01:34:15;-2.50;73.60
37560;DHT22;23398;50.928;7.084;2022-12-18T01:36:40;-2.50;73.80
37560;DHT22;23398;50.928;7.084;2022-12-18T01:39:10;-2.50;74.10
37560;DHT22;23398;50.928;7.084;2022-12-18T01:41:36;-2.50;74.30
37560;DHT22;23398;50.928;7.084;2022-12-18T01:50:09;-2.40;74.90
37560;DHT22;23398;50.928;7.084;2022-12-18T01:52:36;-2.40;74.80
37560;DHT22;23398;50.928;7.084;2022-12-18T01:55:05;-2.40;74.70
37560;DHT22;23398;50.928;7.084;2022-12-18T01:57:32;-2.40;74.60
37560;DHT22;23398;50.928;7.084;2022-12-18T02:00:02;-2.40;74.40
37560;DHT22;23398;50.928;7.084;2022-12-18T02:02:29;-2.40;74.40
37560;DHT22;23398;50.928;7.084;2022-12-18T02:04:55;-2.40;74.30
37560;DHT22;23398;50.928;7.084;2022-12-18T02:13:04;-2.40;74.20
37560;DHT22;23398;50.928;7.084;2022-12-18T02:18:36;-2.40;74.20
37560;DHT22;23398;50.928;7.084;2022-12-18T02:21:12;-2.40;74.00
37560;DHT22;23398;50.928;7.084;2022-12-18T02:26:59;-2.40;74.20
37560;DHT22;23398;50.928;7.084;2022-12-18T02:29:31;-2.40;74.10
37560;DHT22;23398;50.928;7.084;2022-12-18T02:31:58;-2.40;74.10
37560;DHT22;23398;50.928;7.084;2022-12-18T02:34:28;-2.40;74.00
37560;DHT22;23398;50.928;7.084;2022-12-18T02:36:54;-2.40;74.00
37560;DHT22;23398;50.928;7.084;2022-12-18T02:39:23;-2.40;73.90
37560;DHT22;23398;50.928;7.084;2022-12-18T02:41:50;-2.40;73.80
37560;DHT22;23398;50.928;7.084;2022-12-18T02:44:16;-2.40;73.80
37560;DHT22;23398;50.928;7.084;2022-12-18T02:46:48;-2.40;73.80
37560;DHT22;23398;50.928;7.084;2022-12-18T02:49:38;-2.40;73.80
37560;DHT22;23398;50.928;7.084;2022-12-18T02:52:39;-2.50;73.70
37560;DHT22;23398;50.928;7.084;2022-12-18T02:55:26;-2.50;73.60
37560;DHT22;23398;50.928;7.084;2022-12-18T02:58:02;-2.50;73.40
37560;DHT22;23398;50.928;7.084;2022-12-18T03:00:50;-2.50;73.50
37560;DHT22;23398;50.928;7.084;2022-12-18T03:03:28;-2.50;73.60
37560;DHT22;23398;50.928;7.084;2022-12-18T03:06:25;-2.50;73.60
37560;DHT22;23398;50.928;7.084;2022-12-18T03:08:58;-2.50;73.60
37560;DHT22;23398;50.928;7.084;2022-12-18T03:11:26;-2.60;73.40
37560;DHT22;23398;50.928;7.084;2022-12-18T03:14:13;-2.60;73.30
37560;DHT22;23398;50.928;7.084;2022-12-18T03:16:41;-2.60;73.30
37560;DHT22;23398;50.928;7.084;2022-12-18T03:19:11;-2.60;73.20
37560;DHT22;23398;50.928;7.084;2022-12-18T03:21:48;-2.70;73.20
37560;DHT22;23398;50.928;7.084;2022-12-18T03:24:15;-2.70;73.30
37560;DHT22;23398;50.928;7.084;2022-12-18T03:26:44;-2.70;73.20
37560;DHT22;23398;50.928;7.084;2022-12-18T03:29:26;-2.70;73.10
37560;DHT22;23398;50.928;7.084;2022-12-18T03:31:55;-2.70;73.00
37560;DHT22;23398;50.928;7.084;2022-12-18T03:34:32;-2.80;72.70
37560;DHT22;23398;50.928;7.084;2022-12-18T03:36:59;-2.80;72.50
37560;DHT22;23398;50.928;7.084;2022-12-18T03:39:24;-2.90;72.40
37560;DHT22;23398;50.928;7.084;2022-12-18T03:42:18;-2.90;72.50
37560;DHT22;23398;50.928;7.084;2022-12-18T03:45:15;-2.90;72.70
37560;DHT22;23398;50.928;7.084;2022-12-18T03:50:49;-3.00;73.10
37560;DHT22;23398;50.928;7.084;2022-12-18T03:55:55;-3.00;73.80
37560;DHT22;23398;50.928;7.084;2022-12-18T03:58:24;-3.00;73.80
37560;DHT22;23398;50.928;7.084;2022-12-18T04:00:52;-3.00;74.10
37560;DHT22;23398;50.928;7.084;2022-12-18T04:03:20;-3.00;74.20
37560;DHT22;23398;50.928;7.084;2022-12-18T04:05:48;-2.90;74.40
37560;DHT22;23398;50.928;7.084;2022-12-18T04:08:16;-3.00;74.30
37560;DHT22;23398;50.928;7.084;2022-12-18T04:10:41;-2.90;74.50
37560;DHT22;23398;50.928;7.084;2022-12-18T04:13:08;-2.90;75.10
37560;DHT22;23398;50.928;7.084;2022-12-18T04:15:35;-2.90;74.40
37560;DHT22;23398;50.928;7.084;2022-12-18T04:18:01;-2.80;74.40
37560;DHT22;23398;50.928;7.084;2022-12-18T04:20:27;-2.90;74.30
37560;DHT22;23398;50.928;7.084;2022-12-18T04:22:52;-2.90;74.30
37560;DHT22;23398;50.928;7.084;2022-12-18T04:25:18;-2.90;74.40
37560;DHT22;23398;50.928;7.084;2022-12-18T04:27:44;-2.90;74.40
37560;DHT22;23398;50.928;7.084;2022-12-18T04:30:10;-2.90;74.40
37560;DHT22;23398;50.928;7.084;2022-12-18T04:32:35;-2.90;74.40
37560;DHT22;23398;50.928;7.084;2022-12-18T04:35:02;-2.90;74.30
37560;DHT22;23398;50.928;7.084;2022-12-18T04:37:29;-2.90;74.30
37560;DHT22;23398;50.928;7.084;2022-12-18T04:39:55;-2.90;74.30
37560;DHT22;23398;50.928;7.084;2022-12-18T04:42:21;-2.90;74.20
37560;DHT22;23398;50.928;7.084;2022-12-18T04:44:46;-2.90;74.20
37560;DHT22;23398;50.928;7.084;2022-12-18T04:47:12;-2.90;74.20
37560;DHT22;23398;50.928;7.084;2022-12-18T04:49:37;-2.90;74.20
37560;DHT22;23398;50.928;7.084;2022-12-18T04:52:03;-2.90;74.30
37560;DHT22;23398;50.928;7.084;2022-12-18T04:54:28;-2.90;74.40
37560;DHT22;23398;50.928;7.084;2022-12-18T04:56:54;-2.80;74.50
37560;DHT22;23398;50.928;7.084;2022-12-18T04:59:20;-2.90;74.50
37560;DHT22;23398;50.928;7.084;2022-12-18T05:01:45;-2.90;74.60
37560;DHT22;23398;50.928;7.084;2022-12-18T05:04:11;-2.80;74.70
37560;DHT22;23398;50.928;7.084;2022-12-18T05:06:36;-2.90;74.60
37560;DHT22;23398;50.928;7.084;2022-12-18T05:09:02;-2.90;74.50
37560;DHT22;23398;50.928;7.084;2022-12-18T05:11:27;-2.90;74.30
37560;DHT22;23398;50.928;7.084;2022-12-18T05:13:53;-2.80;74.40
37560;DHT22;23398;50.928;7.084;2022-12-18T05:16:18;-2.90;74.20
37560;DHT22;23398;50.928;7.084;2022-12-18T05:18:44;-2.90;74.20
37560;DHT22;23398;50.928;7.084;2022-12-18T05:21:09;-2.90;74.20
37560;DHT22;23398;50.928;7.084;2022-12-18T05:23:35;-2.90;74.30
37560;DHT22;23398;50.928;7.084;2022-12-18T05:26:04;-2.90;74.40
37560;DHT22;23398;50.928;7.084;2022-12-18T05:28:31;-2.90;74.50
37560;DHT22;23398;50.928;7.084;2022-12-18T05:30:59;-2.80;74.60
37560;DHT22;23398;50.928;7.084;2022-12-18T05:33:26;-2.90;74.50
37560;DHT22;23398;50.928;7.084;2022-12-18T05:35:58;-2.80;74.60
37560;DHT22;23398;50.928;7.084;2022-12-18T05:38:25;-2.90;74.80
37560;DHT22;23398;50.928;7.084;2022-12-18T05:40:51;-2.80;74.90
37560;DHT22;23398;50.928;7.084;2022-12-18T05:43:18;-2.80;75.10
37560;DHT22;23398;50.928;7.084;2022-12-18T05:45:45;-2.80;75.10
37560;DHT22;23398;50.928;7.084;2022-12-18T05:48:11;-2.80;75.10
37560;DHT22;23398;50.928;7.084;2022-12-18T05:50:39;-2.70;75.20
37560;DHT22;23398;50.928;7.084;2022-12-18T05:53:05;-2.70;75.30
37560;DHT22;23398;50.928;7.084;2022-12-18T05:55:38;-2.70;75.40
37560;DHT22;23398;50.928;7.084;2022-12-18T05:58:06;-2.60;75.60
37560;DHT22;23398;50.928;7.084;2022-12-18T06:00:33;-2.60;75.30
37560;DHT22;23398;50.928;7.084;2022-12-18T06:03:00;-2.60;75.20
37560;DHT22;23398;50.928;7.084;2022-12-18T06:05:26;-2.60;75.00
37560;DHT22;23398;50.928;7.084;2022-12-18T06:07:51;-2.60;74.70
37560;DHT22;23398;50.928;7.084;2022-12-18T06:10:17;-2.50;74.50
37560;DHT22;23398;50.928;7.084;2022-12-18T06:12:42;-2.50;74.20
37560;DHT22;23398;50.928;7.084;2022-12-18T06:15:08;-2.60;73.80
37560;DHT22;23398;50.928;7.084;2022-12-18T06:17:34;-2.60;73.50
37560;DHT22;23398;50.928;7.084;2022-12-18T06:20:00;-2.60;73.20
37560;DHT22;23398;50.928;7.084;2022-12-18T06:22:27;-2.70;72.90
37560;DHT22;23398;50.928;7.084;2022-12-18T06:24:53;-2.70;72.80
37560;DHT22;23398;50.928;7.084;2022-12-18T06:27:18;-2.60;72.70
37560;DHT22;23398;50.928;7.084;2022-12-18T06:29:44;-2.80;72.40
37560;DHT22;23398;50.928;7.084;2022-12-18T06:32:09;-2.90;71.60
37560;DHT22;23398;50.928;7.084;2022-12-18T06:34:37;-2.90;72.10
37560;DHT22;23398;50.928;7.084;2022-12-18T06:37:03;-2.90;72.20
37560;DHT22;23398;50.928;7.084;2022-12-18T06:39:28;-3.00;72.20
37560;DHT22;23398;50.928;7.084;2022-12-18T06:41:54;-3.00;72.40
37560;DHT22;23398;50.928;7.084;2022-12-18T06:44:20;-3.00;72.50
37560;DHT22;23398;50.928;7.084;2022-12-18T06:46:45;-3.10;72.30
37560;DHT22;23398;50.928;7.084;2022-12-18T06:49:11;-3.10;72.20
37560;DHT22;23398;50.928;7.084;2022-12-18T06:51:37;-3.20;71.80
37560;DHT22;23398;50.928;7.084;2022-12-18T06:54:02;-3.20;71.40
37560;DHT22;23398;50.928;7.084;2022-12-18T06:56:28;-3.30;70.90
37560;DHT22;23398;50.928;7.084;2022-12-18T06:58:54;-3.40;70.40
37560;DHT22;23398;50.928;7.084;2022-12-18T07:01:20;-3.40;70.40
37560;DHT22;23398;50.928;7.084;2022-12-18T07:03:46;-3.50;70.20
37560;DHT22;23398;50.928;7.084;2022-12-18T07:06:18;-3.60;70.20
37560;DHT22;23398;50.928;7.084;2022-12-18T07:08:45;-3.60;70.30
37560;DHT22;23398;50.928;7.084;2022-12-18T07:11:10;-3.70;70.40
37560;DHT22;23398;50.928;7.084;2022-12-18T07:13:36;-3.70;70.60
37560;DHT22;23398;50.928;7.084;2022-12-18T07:16:10;-3.80;70.90
37560;DHT22;23398;50.928;7.084;2022-12-18T07:18:35;-3.80;71.30
37560;DHT22;23398;50.928;7.084;2022-12-18T07:21:11;-3.90;71.50
37560;DHT22;23398;50.928;7.084;2022-12-18T07:23:37;-3.90;71.70
37560;DHT22;23398;50.928;7.084;2022-12-18T07:26:04;-3.90;71.60
37560;DHT22;23398;50.928;7.084;2022-12-18T07:28:30;-3.90;71.20
37560;DHT22;23398;50.928;7.084;2022-12-18T07:30:56;-4.00;70.80
37560;DHT22;23398;50.928;7.084;2022-12-18T07:33:21;-4.00;70.50
37560;DHT22;23398;50.928;7.084;2022-12-18T07:35:47;-3.70;70.80
37560;DHT22;23398;50.928;7.084;2022-12-18T07:38:13;-4.10;70.80
37560;DHT22;23398;50.928;7.084;2022-12-18T07:40:38;-4.20;71.10
37560;DHT22;23398;50.928;7.084;2022-12-18T07:43:04;-4.20;71.70
37560;DHT22;23398;50.928;7.084;2022-12-18T07:45:29;-4.20;72.90
37560;DHT22;23398;50.928;7.084;2022-12-18T07:47:55;-4.20;72.60
37560;DHT22;23398;50.928;7.084;2022-12-18T07:50:20;-4.10;72.80
37560;DHT22;23398;50.928;7.084;2022-12-18T07:52:46;-4.10;72.80
37560;DHT22;23398;50.928;7.084;2022-12-18T07:55:12;-4.10;72.80
37560;DHT22;23398;50.928;7.084;2022-12-18T07:57:37;-4.10;72.90
37560;DHT22;23398;50.928;7.084;2022-12-18T08:00:03;-4.10;73.20
37560;DHT22;23398;50.928;7.084;2022-12-18T08:02:31;-4.00;73.60
37560;DHT22;23398;50.928;7.084;2022-12-18T08:04:56;-4.00;73.90
37560;DHT22;23398;50.928;7.084;2022-12-18T08:07:22;-3.90;75.00
37560;DHT22;23398;50.928;7.084;2022-12-18T08:09:47;-3.90;74.60
37560;DHT22;23398;50.928;7.084;2022-12-18T08:12:13;-3.60;75.20
37560;DHT22;23398;50.928;7.084;2022-12-18T08:14:38;-3.80;75.60
37560;DHT22;23398;50.928;7.084;2022-12-18T08:17:04;-3.70;76.20
37560;DHT22;23398;50.928;7.084;2022-12-18T08:19:30;-3.60;76.90
37560;DHT22;23398;50.928;7.084;2022-12-18T08:21:55;-3.50;77.40
37560;DHT22;23398;50.928;7.084;2022-12-18T08:24:22;-3.40;77.90
37560;DHT22;23398;50.928;7.084;2022-12-18T08:26:47;-3.30;78.20
37560;DHT22;23398;50.928;7.084;2022-12-18T08:29:13;-3.20;78.50
37560;DHT22;23398;50.928;7.084;2022-12-18T08:31:38;-3.10;78.80
37560;DHT22;23398;50.928;7.084;2022-12-18T08:34:04;-3.00;79.30
37560;DHT22;23398;50.928;7.084;2022-12-18T08:36:29;-2.90;80.00
37560;DHT22;23398;50.928;7.084;2022-12-18T08:38:56;-2.70;80.90
37560;DHT22;23398;50.928;7.084;2022-12-18T08:41:22;-2.50;81.70
37560;DHT22;23398;50.928;7.084;2022-12-18T08:43:47;-2.20;82.60
37560;DHT22;23398;50.928;7.084;2022-12-18T08:46:40;-2.10;83.40
37560;DHT22;23398;50.928;7.084;2022-12-18T08:49:07;-1.80;84.90
37560;DHT22;23398;50.928;7.084;2022-12-18T08:51:33;-1.40;86.90
37560;DHT22;23398;50.928;7.084;2022-12-18T08:53:59;-1.00;89.30
37560;DHT22;23398;50.928;7.084;2022-12-18T08:56:24;-0.60;90.50
37560;DHT22;23398;50.928;7.084;2022-12-18T08:58:54;-0.10;91.10
37560;DHT22;23398;50.928;7.084;2022-12-18T09:01:21;0.50;91.30
37560;DHT22;23398;50.928;7.084;2022-12-18T09:03:47;1.20;91.40
37560;DHT22;23398;50.928;7.084;2022-12-18T09:06:15;1.80;90.90
37560;DHT22;23398;50.928;7.084;2022-12-18T09:08:42;2.40;89.30
37560;DHT22;23398;50.928;7.084;2022-12-18T09:11:22;3.00;87.20
37560;DHT22;23398;50.928;7.084;2022-12-18T09:13:49;3.70;83.60
37560;DHT22;23398;50.928;7.084;2022-12-18T09:16:15;4.20;82.60
37560;DHT22;23398;50.928;7.084;2022-12-18T09:18:41;4.70;79.80
37560;DHT22;23398;50.928;7.084;2022-12-18T09:21:11;5.20;76.00
37560;DHT22;23398;50.928;7.084;2022-12-18T09:23:37;5.60;72.70
37560;DHT22;23398;50.928;7.084;2022-12-18T09:26:03;5.90;71.20
37560;DHT22;23398;50.928;7.084;2022-12-18T09:28:28;6.00;68.30
37560;DHT22;23398;50.928;7.084;2022-12-18T09:30:54;6.10;67.10
37560;DHT22;23398;50.928;7.084;2022-12-18T09:33:20;6.20;66.50
37560;DHT22;23398;50.928;7.084;2022-12-18T09:35:46;6.40;66.30
37560;DHT22;23398;50.928;7.084;2022-12-18T09:38:14;6.50;66.40
37560;DHT22;23398;50.928;7.084;2022-12-18T09:40:44;6.70;66.70
37560;DHT22;23398;50.928;7.084;2022-12-18T09:43:22;6.90;65.60
37560;DHT22;23398;50.928;7.084;2022-12-18T09:45:53;7.10;64.60
37560;DHT22;23398;50.928;7.084;2022-12-18T09:48:29;7.30;64.50
37560;DHT22;23398;50.928;7.084;2022-12-18T09:51:07;7.40;62.70
37560;DHT22;23398;50.928;7.084;2022-12-18T09:53:35;7.50;61.30
37560;DHT22;23398;50.928;7.084;2022-12-18T09:56:04;7.40;59.80
37560;DHT22;23398;50.928;7.084;2022-12-18T10:01:22;7.00;58.10
37560;DHT22;23398;50.928;7.084;2022-12-18T10:03:48;6.70;58.40
37560;DHT22;23398;50.928;7.084;2022-12-18T10:06:23;6.50;58.20
37560;DHT22;23398;50.928;7.084;2022-12-18T10:09:05;6.30;57.10
37560;DHT22;23398;50.928;7.084;2022-12-18T10:11:40;5.90;57.20
37560;DHT22;23398;50.928;7.084;2022-12-18T10:20:10;5.20;57.70
37560;DHT22;23398;50.928;7.084;2022-12-18T10:25:32;4.80;58.80
37560;DHT22;23398;50.928;7.084;2022-12-18T10:28:10;4.70;59.50
37560;DHT22;23398;50.928;7.084;2022-12-18T10:30:38;4.60;59.80
37560;DHT22;23398;50.928;7.084;2022-12-18T10:33:04;4.50;60.40
37560;DHT22;23398;50.928;7.084;2022-12-18T10:35:30;4.40;60.40
37560;DHT22;23398;50.928;7.084;2022-12-18T10:38:20;4.40;60.60
37560;DHT22;23398;50.928;7.084;2022-12-18T10:40:55;4.30;60.40
37560;DHT22;23398;50.928;7.084;2022-12-18T10:53:53;4.10;59.40
37560;DHT22;23398;50.928;7.084;2022-12-18T10:56:20;4.20;59.90
37560;DHT22;23398;50.928;7.084;2022-12-18T10:58:56;4.10;59.80
37560;DHT22;23398;50.928;7.084;2022-12-18T11:01:22;4.10;59.60
37560;DHT22;23398;50.928;7.084;2022-12-18T11:06:19;4.10;59.40
37560;DHT22;23398;50.928;7.084;2022-12-18T11:11:27;4.20;60.30
37560;DHT22;23398;50.928;7.084;2022-12-18T11:14:03;4.20;60.40
37560;DHT22;23398;50.928;7.084;2022-12-18T11:16:34;4.20;60.30
37560;DHT22;23398;50.928;7.084;2022-12-18T11:19:17;4.20;60.50
37560;DHT22;23398;50.928;7.084;2022-12-18T11:21:44;4.20;60.40
37560;DHT22;23398;50.928;7.084;2022-12-18T11:24:31;4.30;60.60
37560;DHT22;23398;50.928;7.084;2022-12-18T11:27:03;4.30;60.10
37560;DHT22;23398;50.928;7.084;2022-12-18T11:29:35;4.30;60.40
37560;DHT22;23398;50.928;7.084;2022-12-18T11:32:36;4.40;60.00
37560;DHT22;23398;50.928;7.084;2022-12-18T11:35:17;4.40;60.10
37560;DHT22;23398;50.928;7.084;2022-12-18T11:37:53;4.40;60.60
37560;DHT22;23398;50.928;7.084;2022-12-18T11:40:29;4.40;60.60
37560;DHT22;23398;50.928;7.084;2022-12-18T11:43:14;4.40;60.50
37560;DHT22;23398;50.928;7.084;2022-12-18T11:46:05;4.40;59.90
37560;DHT22;23398;50.928;7.084;2022-12-18T11:48:45;4.40;59.60
37560;DHT22;23398;50.928;7.084;2022-12-18T11:51:24;4.40;59.40
37560;DHT22;23398;50.928;7.084;2022-12-18T11:53:51;4.40;59.40
37560;DHT22;23398;50.928;7.084;2022-12-18T11:56:36;4.40;59.80
37560;DHT22;23398;50.928;7.084;2022-12-18T11:59:41;4.40;60.00
37560;DHT22;23398;50.928;7.084;2022-12-18T12:02:38;4.40;59.40
37560;DHT22;23398;50.928;7.084;2022-12-18T12:18:48;4.20;60.00
37560;DHT22;23398;50.928;7.084;2022-12-18T12:27:03;4.20;59.70
37560;DHT22;23398;50.928;7.084;2022-12-18T12:35:05;4.20;60.60
37560;DHT22;23398;50.928;7.084;2022-12-18T12:40:29;4.20;61.00
37560;DHT22;23398;50.928;7.084;2022-12-18T12:43:12;4.20;60.70
37560;DHT22;23398;50.928;7.084;2022-12-18T12:45:53;4.20;61.50
37560;DHT22;23398;50.928;7.084;2022-12-18T12:51:32;4.20;60.00
37560;DHT22;23398;50.928;7.084;2022-12-18T12:54:00;4.10;60.10
37560;DHT22;23398;50.928;7.084;2022-12-18T12:57:00;4.10;60.20
37560;DHT22;23398;50.928;7.084;2022-12-18T13:02:31;4.10;60.20
37560;DHT22;23398;50.928;7.084;2022-12-18T13:13:06;4.10;60.60
37560;DHT22;23398;50.928;7.084;2022-12-18T13:15:47;4.10;60.10
37560;DHT22;23398;50.928;7.084;2022-12-18T13:18:21;4.10;60.00
37560;DHT22;23398;50.928;7.084;2022-12-18T13:20:50;4.10;60.20
37560;DHT22;23398;50.928;7.084;2022-12-18T13:23:29;4.10;60.20
37560;DHT22;23398;50.928;7.084;2022-12-18T13:34:23;4.00;59.70
37560;DHT22;23398;50.928;7.084;2022-12-18T13:36:50;4.00;59.60
37560;DHT22;23398;50.928;7.084;2022-12-18T13:41:51;3.90;59.70
37560;DHT22;23398;50.928;7.084;2022-12-18T13:46:51;3.80;59.40
37560;DHT22;23398;50.928;7.084;2022-12-18T13:49:40;3.80;59.70
37560;DHT22;23398;50.928;7.084;2022-12-18T13:52:35;3.60;59.00
37560;DHT22;23398;50.928;7.084;2022-12-18T13:55:05;3.60;59.20
37560;DHT22;23398;50.928;7.084;2022-12-18T13:57:36;3.50;59.40
37560;DHT22;23398;50.928;7.084;2022-12-18T14:00:30;3.50;59.70
37560;DHT22;23398;50.928;7.084;2022-12-18T14:02:57;3.50;59.70
37560;DHT22;23398;50.928;7.084;2022-12-18T14:05:32;3.50;59.90
37560;DHT22;23398;50.928;7.084;2022-12-18T14:08:11;3.50;59.80
37560;DHT22;23398;50.928;7.084;2022-12-18T14:10:45;3.50;59.80
37560;DHT22;23398;50.928;7.084;2022-12-18T14:15:49;3.40;59.70
37560;DHT22;23398;50.928;7.084;2022-12-18T14:20:51;3.40;59.80
37560;DHT22;23398;50.928;7.084;2022-12-18T14:23:34;3.30;59.60
37560;DHT22;23398;50.928;7.084;2022-12-18T14:26:02;3.20;59.30
37560;DHT22;23398;50.928;7.084;2022-12-18T14:28:28;3.10;59.50
37560;DHT22;23398;50.928;7.084;2022-12-18T14:30:54;3.10;59.90
37560;DHT22;23398;50.928;7.084;2022-12-18T14:33:25;3.10;59.90
37560;DHT22;23398;50.928;7.084;2022-12-18T14:36:05;3.10;59.90
37560;DHT22;23398;50.928;7.084;2022-12-18T14:38:38;3.20;60.00
37560;DHT22;23398;50.928;7.084;2022-12-18T14:41:09;3.20;60.10
37560;DHT22;23398;50.928;7.084;2022-12-18T14:43:37;3.10;60.00
37560;DHT22;23398;50.928;7.084;2022-12-18T14:46:05;3.20;59.90
37560;DHT22;23398;50.928;7.084;2022-12-18T14:48:40;3.10;59.80
37560;DHT22;23398;50.928;7.084;2022-12-18T14:53:42;3.10;59.60
37560;DHT22;23398;50.928;7.084;2022-12-18T14:56:17;3.10;59.90
37560;DHT22;23398;50.928;7.084;2022-12-18T14:58:48;3.00;59.70
37560;DHT22;23398;50.928;7.084;2022-12-18T15:04:00;3.00;59.40
37560;DHT22;23398;50.928;7.084;2022-12-18T15:06:29;2.90;59.50
37560;DHT22;23398;50.928;7.084;2022-12-18T15:08:57;3.00;59.50
37560;DHT22;23398;50.928;7.084;2022-12-18T15:13:58;2.90;59.90
37560;DHT22;23398;50.928;7.084;2022-12-18T15:16:25;2.70;59.70
37560;DHT22;23398;50.928;7.084;2022-12-18T15:18:50;2.80;59.90
37560;DHT22;23398;50.928;7.084;2022-12-18T15:21:18;2.80;60.20
37560;DHT22;23398;50.928;7.084;2022-12-18T15:26:12;2.80;59.90
37560;DHT22;23398;50.928;7.084;2022-12-18T15:33:43;2.70;59.80
37560;DHT22;23398;50.928;7.084;2022-12-18T15:36:15;2.80;60.20
37560;DHT22;23398;50.928;7.084;2022-12-18T15:38:41;2.70;59.90
37560;DHT22;23398;50.928;7.084;2022-12-18T15:41:15;2.70;60.30
37560;DHT22;23398;50.928;7.084;2022-12-18T15:43:41;2.70;60.40
37560;DHT22;23398;50.928;7.084;2022-12-18T15:46:11;2.70;60.60
37560;DHT22;23398;50.928;7.084;2022-12-18T15:48:43;2.70;60.70
37560;DHT22;23398;50.928;7.084;2022-12-18T15:53:39;2.70;60.90
37560;DHT22;23398;50.928;7.084;2022-12-18T15:56:07;2.70;61.20
37560;DHT22;23398;50.928;7.084;2022-12-18T15:58:53;2.60;61.00
37560;DHT22;23398;50.928;7.084;2022-12-18T16:01:20;2.60;61.00
37560;DHT22;23398;50.928;7.084;2022-12-18T16:03:45;2.60;61.00
37560;DHT22;23398;50.928;7.084;2022-12-18T16:06:11;2.60;61.20
37560;DHT22;23398;50.928;7.084;2022-12-18T16:08:36;2.60;61.20
37560;DHT22;23398;50.928;7.084;2022-12-18T16:11:02;2.60;61.20
37560;DHT22;23398;50.928;7.084;2022-12-18T16:13:28;2.60;61.20
37560;DHT22;23398;50.928;7.084;2022-12-18T16:15:53;2.60;61.30
37560;DHT22;23398;50.928;7.084;2022-12-18T16:18:19;2.60;61.20
37560;DHT22;23398;50.928;7.084;2022-12-18T16:20:44;2.60;61.30
37560;DHT22;23398;50.928;7.084;2022-12-18T16:23:10;2.60;61.20
37560;DHT22;23398;50.928;7.084;2022-12-18T16:25:36;2.50;61.00
37560;DHT22;23398;50.928;7.084;2022-12-18T16:28:01;2.50;61.10
37560;DHT22;23398;50.928;7.084;2022-12-18T16:30:29;2.40;60.90
37560;DHT22;23398;50.928;7.084;2022-12-18T16:32:56;2.40;61.10
37560;DHT22;23398;50.928;7.084;2022-12-18T16:35:22;2.40;61.30
37560;DHT22;23398;50.928;7.084;2022-12-18T16:37:48;2.30;61.30
37560;DHT22;23398;50.928;7.084;2022-12-18T16:40:15;2.30;61.50
37560;DHT22;23398;50.928;7.084;2022-12-18T16:42:43;2.30;61.60
37560;DHT22;23398;50.928;7.084;2022-12-18T16:45:14;2.30;61.60
37560;DHT22;23398;50.928;7.084;2022-12-18T16:47:40;2.30;61.80
37560;DHT22;23398;50.928;7.084;2022-12-18T16:50:06;2.30;61.80
37560;DHT22;23398;50.928;7.084;2022-12-18T16:52:32;2.30;61.90
37560;DHT22;23398;50.928;7.084;2022-12-18T16:54:58;2.30;61.90
37560;DHT22;23398;50.928;7.084;2022-12-18T16:57:24;2.30;62.00
37560;DHT22;23398;50.928;7.084;2022-12-18T16:59:49;2.20;61.30
37560;DHT22;23398;50.928;7.084;2022-12-18T17:02:25;2.20;62.00
37560;DHT22;23398;50.928;7.084;2022-12-18T17:04:55;2.20;62.10
37560;DHT22;23398;50.928;7.084;2022-12-18T17:07:22;2.20;62.20
37560;DHT22;23398;50.928;7.084;2022-12-18T17:09:48;2.20;62.10
37560;DHT22;23398;50.928;7.084;2022-12-18T17:12:14;2.20;62.20
37560;DHT22;23398;50.928;7.084;2022-12-18T17:14:40;2.20;62.30
37560;DHT22;23398;50.928;7.084;2022-12-18T17:17:06;2.20;62.30
37560;DHT22;23398;50.928;7.084;2022-12-18T17:19:31;2.20;63.10
37560;DHT22;23398;50.928;7.084;2022-12-18T17:21:58;2.20;62.30
37560;DHT22;23398;50.928;7.084;2022-12-18T17:24:24;2.20;62.30
37560;DHT22;23398;50.928;7.084;2022-12-18T17:26:50;2.20;62.40
37560;DHT22;23398;50.928;7.084;2022-12-18T17:29:17;2.20;62.40
37560;DHT22;23398;50.928;7.084;2022-12-18T17:31:45;2.20;62.50
37560;DHT22;23398;50.928;7.084;2022-12-18T17:34:11;2.20;62.50
37560;DHT22;23398;50.928;7.084;2022-12-18T17:36:38;2.20;62.60
37560;DHT22;23398;50.928;7.084;2022-12-18T17:39:05;2.20;62.50
37560;DHT22;23398;50.928;7.084;2022-12-18T17:41:31;2.20;62.30
37560;DHT22;23398;50.928;7.084;2022-12-18T17:44:00;2.20;62.40
37560;DHT22;23398;50.928;7.084;2022-12-18T17:46:28;2.20;62.60
37560;DHT22;23398;50.928;7.084;2022-12-18T17:48:55;2.20;62.50
37560;DHT22;23398;50.928;7.084;2022-12-18T17:51:21;2.20;62.50
37560;DHT22;23398;50.928;7.084;2022-12-18T17:53:47;2.20;62.50
37560;DHT22;23398;50.928;7.084;2022-12-18T17:56:15;2.20;62.30
37560;DHT22;23398;50.928;7.084;2022-12-18T17:58:41;2.20;62.40
37560;DHT22;23398;50.928;7.084;2022-12-18T18:01:08;2.20;62.40